Time;durP1;ratioP1;P1;durP2;ratioP2;P2;SDS_P1;SDS_P2;PMS_P1;PMS_P2;Temp;Humidity;BMP_temperature;BMP_pressure;BME280_temperature;BME280_humidity;BME280_pressure;Samples;Min_cycle;Max_cycle;Signal;HPM_P1;HPM_P2
2023/03/27 00:01:41;;;;;;;3.53;0.90;;;5.50;99.90;;;;;;5014288;28;20069;-88
2023/03/27 00:04:08;;;;;;;8.30;1.13;;;4.40;99.90;;;;;;5014232;28;20096;-88
2023/03/27 00:06:33;;;;;;;;;;;4.30;99.90;;;;;;4998594;28;20620;-87
2023/03/27 00:08:59;;;;;;;8.05;1.00;;;5.30;99.90;;;;;;5014013;28;19992;-88
2023/03/27 00:11:25;;;;;;;4.45;1.10;;;4.20;99.90;;;;;;4998239;28;20120;-88
2023/03/27 00:13:53;;;;;;;3.20;0.98;;;5.50;99.90;;;;;;5014464;28;20038;-88
2023/03/27 00:16:21;;;;;;;4.35;1.00;;;4.10;99.90;;;;;;5014398;28;20076;-89
2023/03/27 00:18:47;;;;;;;8.55;1.17;;;4.10;99.90;;;;;;4997218;28;20034;-88
2023/03/27 00:21:13;;;;;;;3.35;0.80;;;4.70;99.90;;;;;;5013536;28;20041;-88
2023/03/27 00:23:39;;;;;;;6.18;1.10;;;4.00;99.90;;;;;;5013352;28;20034;-88
2023/03/27 00:26:05;;;;;;;4.82;1.00;;;3.90;99.90;;;;;;5013737;28;20037;-88
2023/03/27 00:28:31;;;;;;;2.28;0.77;;;3.90;99.90;;;;;;5010510;28;20046;-88
2023/03/27 00:30:57;;;;;;;5.45;0.95;;;3.90;99.90;;;;;;5013585;28;20049;-88
2023/03/27 00:33:24;;;;;;;;;;;3.90;99.90;;;;;;4997532;28;20447;-88
2023/03/27 00:35:50;;;;;;;6.00;0.90;;;3.90;99.90;;;;;;5012217;28;19917;-88
2023/03/27 00:38:17;;;;;;;3.60;0.95;;;4.00;99.90;;;;;;5013428;28;20053;-88
2023/03/27 00:40:43;;;;;;;;;;;3.80;99.90;;;;;;4997563;28;20485;-88
2023/03/27 00:43:21;;;;;;;1.67;0.80;;;4.90;99.90;;;;;;5013069;28;19917;-87
2023/03/27 00:45:47;;;;;;;7.47;1.27;;;3.70;99.90;;;;;;5012129;28;20387;-88
2023/03/27 00:48:14;;;;;;;4.78;0.90;;;3.70;99.90;;;;;;5013181;28;20121;-88
2023/03/27 00:50:42;;;;;;;3.47;0.90;;;4.60;99.90;;;;;;4981014;28;20041;-89
2023/03/27 00:53:23;;;;;;;3.97;0.70;;;3.70;99.90;;;;;;5010949;28;20050;-88
2023/03/27 00:55:51;;;;;;;5.70;1.15;;;3.60;99.90;;;;;;5012279;28;20044;-88
2023/03/27 00:58:45;;;;;;;3.72;1.13;;;3.90;99.90;;;;;;5013057;28;20050;-88
2023/03/27 01:01:15;;;;;;;4.13;1.23;;;3.60;99.90;;;;;;5010718;28;20099;-88
2023/03/27 01:03:44;;;;;;;7.15;1.10;;;3.50;99.90;;;;;;5012806;28;20113;-88
2023/03/27 01:06:12;;;;;;;2.35;0.95;;;3.50;99.90;;;;;;5016510;28;20114;-88
2023/03/27 01:08:41;;;;;;;3.55;1.25;;;3.40;99.90;;;;;;5012873;28;20362;-89
2023/03/27 01:11:55;;;;;;;12.20;1.63;;;3.50;99.90;;;;;;4994389;28;20069;-88
2023/03/27 01:14:49;;;;;;;5.05;1.10;;;3.40;99.90;;;;;;4994443;28;20076;-88
2023/03/27 01:17:32;;;;;;;10.23;2.40;;;3.40;99.90;;;;;;4995790;28;20126;-89
2023/03/27 01:20:23;;;;;;;3.17;0.82;;;3.40;99.90;;;;;;5013132;28;20030;-88
2023/03/27 01:23:00;;;;;;;3.00;0.93;;;3.40;99.90;;;;;;5012432;28;20380;-89
2023/03/27 01:26:00;;;;;;;5.55;1.48;;;3.40;99.90;;;;;;5012669;28;20494;-88
2023/03/27 01:28:53;;;;;;;6.60;1.52;;;3.40;99.90;;;;;;5012148;28;20065;-87
2023/03/27 01:31:45;;;;;;;5.15;1.17;;;3.40;99.90;;;;;;5018522;28;20055;-88
2023/03/27 01:34:41;;;;;;;4.60;0.90;;;3.30;99.90;;;;;;5010115;28;20129;-88
2023/03/27 01:37:23;;;;;;;5.05;0.93;;;3.30;99.90;;;;;;5012523;28;20042;-88
2023/03/27 01:40:11;;;;;;;5.05;1.00;;;3.30;99.90;;;;;;5012491;28;20100;-88
2023/03/27 01:42:45;;;;;;;4.22;1.10;;;3.30;99.90;;;;;;5012566;28;20113;-88
2023/03/27 01:45:29;;;;;;;6.57;1.02;;;3.20;99.90;;;;;;5012626;28;20030;-88
2023/03/27 01:47:58;;;;;;;4.60;0.70;;;3.20;99.90;;;;;;5011278;28;20041;-88
2023/03/27 01:50:47;;;;;;;3.00;1.00;;;3.20;99.90;;;;;;5014329;28;20046;-89
2023/03/27 01:53:53;;;;;;;3.67;0.75;;;3.20;99.90;;;;;;5013538;28;20038;-87
2023/03/27 01:56:30;;;;;;;7.97;1.30;;;3.20;99.90;;;;;;5011256;28;20050;-88
2023/03/27 01:59:05;;;;;;;6.07;1.40;;;3.20;99.90;;;;;;5012542;28;20064;-87
2023/03/27 02:01:37;;;;;;;7.90;0.90;;;3.20;99.90;;;;;;5011290;28;20065;-87
2023/03/27 02:04:06;;;;;;;6.03;1.42;;;3.10;99.90;;;;;;4995497;28;20057;-88
2023/03/27 02:06:36;;;;;;;6.00;0.90;;;3.10;99.90;;;;;;5000109;28;20837;-87
2023/03/27 02:09:17;;;;;;;6.70;0.85;;;3.10;99.90;;;;;;5013625;28;20490;-87
2023/03/27 02:12:10;;;;;;;3.60;1.00;;;3.60;99.90;;;;;;5015854;28;20473;-87
2023/03/27 02:14:45;;;;;;;7.18;0.98;;;3.00;99.90;;;;;;5013128;28;20050;-88
2023/03/27 02:17:13;;;;;;;9.07;1.20;;;3.20;99.90;;;;;;5015716;28;20093;-87
2023/03/27 02:20:10;;;;;;;3.45;0.90;;;3.50;99.90;;;;;;4999515;28;20469;-88
2023/03/27 02:22:38;;;;;;;3.22;0.80;;;2.90;99.90;;;;;;5005427;28;20026;-88
2023/03/27 02:25:23;;;;;;;3.45;0.73;;;4.30;99.90;;;;;;4998804;28;20092;-88
2023/03/27 02:28:02;;;;;;;8.88;1.00;;;3.00;99.90;;;;;;5012356;28;20048;-88
2023/03/27 02:30:35;;;;;;;7.75;1.20;;;3.00;99.90;;;;;;5012049;28;20168;-88
2023/03/27 02:33:13;;;;;;;5.00;1.38;;;3.00;99.90;;;;;;5013386;28;20072;-87
2023/03/27 02:35:50;;;;;;;7.35;1.38;;;3.10;99.90;;;;;;5012516;28;20045;-87
2023/03/27 02:38:36;;;;;;;7.10;1.60;;;3.10;99.90;;;;;;5014647;28;20060;-88
2023/03/27 02:41:19;;;;;;;6.47;1.08;;;3.20;99.90;;;;;;5014104;28;20188;-87
2023/03/27 02:43:52;;;;;;;6.63;1.30;;;3.20;99.90;;;;;;4998429;28;20117;-86
2023/03/27 02:46:41;;;;;;;8.77;1.20;;;4.20;99.90;;;;;;4998516;28;20044;-88
2023/03/27 02:49:25;;;;;;;6.10;1.42;;;3.20;99.90;;;;;;5006351;28;20054;-87
2023/03/27 02:51:58;;;;;;;4.65;1.35;;;3.30;99.90;;;;;;5012371;28;20034;-87
2023/03/27 02:54:32;;;;;;;4.32;1.35;;;3.30;99.90;;;;;;5014786;28;20046;-88
2023/03/27 02:57:02;;;;;;;6.00;1.05;;;3.30;99.90;;;;;;5014768;28;20536;-87
2023/03/27 02:59:37;;;;;;;5.18;1.20;;;3.30;99.90;;;;;;5014592;28;20030;-86
2023/03/27 03:02:11;;;;;;;5.13;1.00;;;4.10;99.90;;;;;;4993874;28;20038;-88
2023/03/27 03:04:45;;;;;;;5.88;1.20;;;3.80;99.90;;;;;;5014395;28;20117;-86
2023/03/27 03:07:13;;;;;;;6.60;1.35;;;3.30;99.90;;;;;;5014272;28;20088;-86
2023/03/27 03:09:39;;;;;;;10.20;1.27;;;3.30;99.90;;;;;;5014628;28;20077;-88
2023/03/27 03:12:06;;;;;;;4.30;1.25;;;3.40;99.90;;;;;;5014608;28;20136;-88
2023/03/27 03:14:36;;;;;;;6.13;1.50;;;3.30;99.90;;;;;;5014878;28;20453;-88
2023/03/27 03:17:02;;;;;;;4.40;1.30;;;3.20;99.90;;;;;;5014389;28;20494;-88
2023/03/27 03:19:28;;;;;;;8.05;1.45;;;3.20;99.90;;;;;;4997733;28;20034;-88
2023/03/27 03:21:54;;;;;;;5.03;1.23;;;3.20;99.90;;;;;;4982268;28;20042;-88
2023/03/27 03:24:21;;;;;;;7.57;1.40;;;3.10;99.90;;;;;;5014727;28;20049;-88
2023/03/27 03:26:50;;;;;;;3.85;1.13;;;3.80;99.90;;;;;;5014970;28;20045;-88
2023/03/27 03:29:17;;;;;;;7.03;1.33;;;3.00;99.90;;;;;;4997155;28;20061;-88
2023/03/27 03:31:44;;;;;;;10.30;2.05;;;3.60;99.90;;;;;;4981948;28;20041;-88
2023/03/27 03:34:15;;;;;;;4.60;1.05;;;2.90;99.90;;;;;;4997120;28;20038;-87
2023/03/27 03:36:41;;;;;;;3.50;1.40;;;2.80;99.90;;;;;;5014020;28;20045;-88
2023/03/27 03:39:07;;;;;;;;;;;3.80;99.90;;;;;;5014752;28;20030;-88
2023/03/27 03:41:33;;;;;;;8.27;1.55;;;2.80;99.90;;;;;;4997385;28;19952;-88
2023/03/27 03:43:59;;;;;;;8.23;2.03;;;3.30;99.90;;;;;;5013507;28;20522;-88
2023/03/27 03:46:24;;;;;;;4.05;1.23;;;2.60;99.90;;;;;;5014336;28;20119;-88
2023/03/27 03:48:50;;;;;;;6.47;1.30;;;2.90;99.90;;;;;;5014255;28;20045;-88
2023/03/27 03:51:16;;;;;;;5.55;1.50;;;2.40;99.90;;;;;;5014314;28;20110;-88
2023/03/27 03:53:41;;;;;;;6.35;1.33;;;2.70;99.90;;;;;;4997879;28;20073;-88
2023/03/27 03:56:07;;;;;;;6.43;1.53;;;2.50;99.90;;;;;;4998148;28;20045;-88
2023/03/27 03:58:33;;;;;;;8.52;1.73;;;2.40;99.90;;;;;;4981658;28;20792;-88
2023/03/27 04:01:01;;;;;;;2.75;1.20;;;3.40;99.90;;;;;;5015130;28;20038;-88
2023/03/27 04:03:30;;;;;;;5.38;1.38;;;2.90;99.90;;;;;;5015042;28;20770;-88
2023/03/27 04:05:59;;;;;;;4.32;1.58;;;2.60;99.90;;;;;;5015184;28;20409;-88
2023/03/27 04:08:26;;;;;;;4.45;1.33;;;2.40;99.90;;;;;;5014509;28;20042;-88
2023/03/27 04:10:52;;;;;;;7.30;1.30;;;2.40;99.90;;;;;;5014098;28;20069;-88
2023/03/27 04:13:18;;;;;;;3.70;1.50;;;2.50;99.90;;;;;;4998161;28;20041;-88
2023/03/27 04:15:43;;;;;;;9.48;2.38;;;2.50;99.90;;;;;;5014183;28;20429;-88
2023/03/27 04:18:09;;;;;;;7.32;1.58;;;3.80;99.90;;;;;;5013675;28;20052;-91
2023/03/27 04:20:36;;;;;;;3.78;1.38;;;2.70;99.90;;;;;;4997152;28;20414;-88
2023/03/27 04:23:02;;;;;;;9.48;1.83;;;3.40;99.90;;;;;;5014182;28;20069;-89
2023/03/27 04:25:28;;;;;;;5.25;1.55;;;2.60;99.90;;;;;;5014609;28;20821;-88
2023/03/27 04:27:55;;;;;;;5.82;1.50;;;2.50;99.90;;;;;;5014161;28;20120;-89
2023/03/27 04:30:23;;;;;;;7.65;1.65;;;2.50;99.90;;;;;;5014574;28;20109;-90
2023/03/27 04:32:51;;;;;;;6.22;1.70;;;2.70;99.90;;;;;;4983376;28;20049;-90
2023/03/27 04:35:18;;;;;;;3.78;1.17;;;2.80;99.90;;;;;;5000146;28;20057;-90
2023/03/27 04:37:45;;;;;;;8.18;1.63;;;2.70;99.90;;;;;;5015271;28;20050;-89
2023/03/27 04:40:13;;;;;;;6.22;1.33;;;3.60;99.90;;;;;;5015221;28;20116;-91
2023/03/27 04:42:41;;;;;;;5.50;1.20;;;2.90;99.90;;;;;;5016460;28;20046;-91
2023/03/27 04:45:11;;;;;;;6.00;1.45;;;3.10;99.90;;;;;;5012571;28;20379;-86
2023/03/27 04:47:37;;;;;;;10.27;1.40;;;3.00;99.90;;;;;;5015557;28;20033;-90
2023/03/27 04:50:04;;;;;;;5.65;1.10;;;3.10;99.90;;;;;;5016771;28;20045;-91
2023/03/27 04:52:32;;;;;;;4.15;0.77;;;3.20;99.90;;;;;;4996848;28;20501;-83
2023/03/27 04:55:00;;;;;;;4.22;0.80;;;4.10;99.90;;;;;;5011659;28;20033;-82
2023/03/27 04:57:27;;;;;;;2.58;1.23;;;3.60;99.90;;;;;;5008531;28;20049;-83
2023/03/27 04:59:53;;;;;;;3.47;0.93;;;3.30;99.90;;;;;;5011257;28;20034;-83
2023/03/27 05:02:20;;;;;;;4.80;1.05;;;3.20;99.90;;;;;;5011380;28;20397;-83
2023/03/27 05:04:46;;;;;;;;;;;3.60;99.90;;;;;;4995769;28;20064;-82
2023/03/27 05:07:12;;;;;;;7.23;0.77;;;4.40;99.90;;;;;;5011123;28;19917;-83
2023/03/27 05:09:38;;;;;;;2.73;0.60;;;3.20;99.90;;;;;;5011392;28;20038;-82
2023/03/27 05:12:04;;;;;;;0.77;0.53;;;3.20;99.90;;;;;;5011224;28;20281;-82
2023/03/27 05:14:32;;;;;;;1.20;0.77;;;2.30;99.90;;;;;;5011482;28;20292;-83
2023/03/27 05:16:59;;;;;;;5.43;0.70;;;3.60;99.90;;;;;;5011088;28;20042;-83
2023/03/27 05:19:25;;;;;;;4.80;0.63;;;4.60;99.90;;;;;;5011188;28;20296;-83
2023/03/27 05:21:51;;;;;;;3.95;0.90;;;3.50;99.90;;;;;;4994912;28;20037;-83
2023/03/27 05:24:17;;;;;;;3.65;0.80;;;3.20;99.90;;;;;;5010556;28;20490;-83
2023/03/27 05:26:43;;;;;;;1.83;0.60;;;3.10;99.90;;;;;;4978661;28;20062;-83
2023/03/27 05:29:09;;;;;;;4.90;0.60;;;3.10;99.90;;;;;;5010485;28;20506;-83
2023/03/27 05:31:35;;;;;;;5.63;1.60;;;3.20;99.90;;;;;;4994544;28;20046;-83
2023/03/27 05:34:02;;;;;;;3.50;0.63;;;3.00;99.90;;;;;;5011315;28;20041;-83
2023/03/27 05:36:28;;;;;;;2.65;0.88;;;3.10;99.90;;;;;;5010269;28;20069;-83
2023/03/27 05:38:56;;;;;;;2.45;0.90;;;3.00;99.90;;;;;;5010305;28;20087;-83
2023/03/27 05:41:23;;;;;;;4.25;0.80;;;3.00;99.90;;;;;;5009015;28;20053;-83
2023/03/27 05:43:50;;;;;;;3.88;0.70;;;3.00;99.90;;;;;;5017075;28;20045;-83
2023/03/27 05:46:16;;;;;;;3.47;1.58;;;2.90;99.90;;;;;;5000491;28;20113;-83
2023/03/27 05:48:42;;;;;;;5.18;1.30;;;2.90;99.90;;;;;;5016852;28;20474;-83
2023/03/27 05:51:09;;;;;;;6.53;1.10;;;3.80;99.90;;;;;;5016292;28;20119;-83
2023/03/27 05:53:39;;;;;;;1.52;0.60;;;3.10;99.90;;;;;;5000632;28;20474;-83
2023/03/27 05:56:08;;;;;;;8.55;1.08;;;2.90;99.90;;;;;;5000989;28;20045;-83
2023/03/27 05:58:35;;;;;;;3.53;0.70;;;2.90;99.90;;;;;;5017034;28;20054;-83
2023/03/27 06:01:02;;;;;;;6.82;0.95;;;3.70;99.90;;;;;;5017263;28;20486;-82
2023/03/27 06:03:33;;;;;;;5.40;1.63;;;3.20;99.90;;;;;;5016979;28;20490;-82
2023/03/27 06:05:59;;;;;;;5.13;0.95;;;3.30;99.90;;;;;;5016666;28;20038;-82
2023/03/27 06:08:28;;;;;;;4.68;1.17;;;4.40;99.90;;;;;;5017179;28;20077;-82
2023/03/27 06:10:54;;;;;;;3.90;0.80;;;3.10;99.90;;;;;;5017765;28;20057;-82
2023/03/27 06:13:20;;;;;;;6.50;1.05;;;3.10;99.90;;;;;;5017503;28;20054;-82
2023/03/27 06:15:46;;;;;;;;;;;3.70;99.90;;;;;;5017653;28;20056;-82
2023/03/27 06:18:11;;;;;;;5.95;1.10;;;3.40;99.90;;;;;;5000560;28;20004;-82
2023/03/27 06:20:38;;;;;;;6.05;0.93;;;3.60;99.90;;;;;;5017247;28;20034;-82
2023/03/27 06:23:08;;;;;;;;;;;3.30;99.90;;;;;;5017836;28;20124;-82
2023/03/27 06:25:35;;;;;;;3.95;0.90;;;3.40;99.90;;;;;;5017508;28;20381;-83
2023/03/27 06:28:03;;;;;;;6.57;1.08;;;3.50;99.90;;;;;;5016978;28;20044;-83
2023/03/27 06:30:29;;;;;;;4.70;1.52;;;3.60;99.90;;;;;;5000396;28;20058;-83
2023/03/27 06:32:59;;;;;;;2.80;0.70;;;4.30;99.90;;;;;;5017280;28;20429;-83
2023/03/27 06:35:27;;;;;;;5.63;1.42;;;3.90;99.90;;;;;;5016229;28;20107;-83
2023/03/27 06:37:54;;;;;;;4.57;1.08;;;4.20;99.90;;;;;;5016850;28;20161;-83
2023/03/27 06:40:23;;;;;;;5.80;0.93;;;4.20;99.90;;;;;;5018001;28;20042;-83
2023/03/27 06:43:00;;;;;;;8.35;0.90;;;4.50;99.90;;;;;;5002009;28;20046;-83
2023/03/27 06:45:27;;;;;;;;;;;4.50;99.90;;;;;;5017922;28;20061;-83
2023/03/27 06:47:55;;;;;;;1.73;0.80;;;4.70;99.90;;;;;;5017825;28;19987;-83
2023/03/27 06:50:22;;;;;;;5.65;0.90;;;4.70;99.90;;;;;;5018039;28;20501;-83
2023/03/27 06:52:48;;;;;;;1.73;0.63;;;4.70;99.90;;;;;;4999900;28;20052;-81
2023/03/27 06:55:16;;;;;;;2.65;0.80;;;4.80;99.90;;;;;;4998067;28;20112;-83
2023/03/27 06:57:47;;;;;;;2.97;0.80;;;4.90;99.90;;;;;;5015001;28;20042;-84
2023/03/27 07:00:18;;;;;;;3.10;0.73;;;5.10;99.90;;;;;;5007869;28;20168;-83
2023/03/27 07:02:48;;;;;;;4.90;1.08;;;5.20;99.90;;;;;;5015000;28;20509;-84
2023/03/27 07:05:15;;;;;;;6.88;1.63;;;5.60;99.90;;;;;;5012124;28;20065;-84
2023/03/27 07:07:41;;;;;;;;;;;5.60;99.90;;;;;;5015201;28;20049;-83
2023/03/27 07:10:08;;;;;;;5.10;0.85;;;5.90;99.90;;;;;;5014522;28;20389;-84
2023/03/27 07:12:34;;;;;;;8.23;0.95;;;5.90;99.90;;;;;;5013755;28;20117;-83
2023/03/27 07:15:00;;;;;;;5.38;1.13;;;6.50;99.90;;;;;;5014739;28;20049;-83
2023/03/27 07:17:26;;;;;;;5.45;1.05;;;6.20;99.90;;;;;;5014067;28;20108;-83
2023/03/27 07:19:52;;;;;;;3.95;1.20;;;6.20;99.90;;;;;;5014971;28;20469;-84
2023/03/27 07:22:18;;;;;;;;;;;6.30;99.90;;;;;;5013972;28;20145;-84
2023/03/27 07:24:44;;;;;;;4.88;1.02;;;6.30;99.90;;;;;;5014559;28;20277;-84
2023/03/27 07:27:10;;;;;;;3.87;0.90;;;6.20;99.90;;;;;;5013611;28;20049;-84
2023/03/27 07:29:36;;;;;;;5.93;0.90;;;6.00;99.90;;;;;;4997592;28;20050;-84
2023/03/27 07:32:03;;;;;;;8.27;1.13;;;6.30;99.90;;;;;;4998082;28;20120;-84
2023/03/27 07:34:29;;;;;;;7.20;0.85;;;6.80;99.90;;;;;;5013271;28;20038;-84
2023/03/27 07:36:57;;;;;;;2.23;0.83;;;7.40;99.90;;;;;;5013772;28;20064;-84
2023/03/27 07:39:24;;;;;;;7.78;1.17;;;7.70;99.90;;;;;;4996110;28;20691;-84
2023/03/27 07:41:51;;;;;;;6.40;1.27;;;7.60;99.90;;;;;;5012524;28;20038;-84
2023/03/27 07:44:17;;;;;;;;;;;7.30;99.90;;;;;;5013143;28;20375;-84
2023/03/27 07:46:44;;;;;;;3.20;1.13;;;6.50;99.90;;;;;;5012775;28;19917;-84
2023/03/27 07:49:10;;;;;;;3.97;0.68;;;6.10;99.90;;;;;;5012299;28;20038;-84
2023/03/27 07:51:37;;;;;;;1.30;0.60;;;5.50;99.90;;;;;;4995824;28;20387;-83
2023/03/27 07:54:03;;;;;;;2.30;0.63;;;5.30;99.90;;;;;;5012836;28;20176;-83
2023/03/27 07:56:32;;;;;;;3.92;0.70;;;5.20;99.90;;;;;;4995877;28;20053;-84
2023/03/27 07:58:58;;;;;;;2.17;0.77;;;5.20;99.90;;;;;;4994056;28;20046;-84
2023/03/27 08:01:27;;;;;;;1.30;0.50;;;5.10;99.90;;;;;;5012246;28;20046;-83
2023/03/27 08:03:53;;;;;;;4.25;0.98;;;5.00;99.90;;;;;;4996171;28;20056;-83
2023/03/27 08:06:19;;;;;;;2.92;0.63;;;5.30;99.90;;;;;;4995746;28;20116;-84
2023/03/27 08:08:45;;;;;;;5.43;0.90;;;5.90;99.90;;;;;;5012700;28;20098;-83
2023/03/27 08:11:11;;;;;;;2.67;0.80;;;6.70;99.90;;;;;;4997041;28;20292;-84
2023/03/27 08:13:38;;;;;;;0.70;0.50;;;7.40;99.90;;;;;;4996630;28;20096;-84
2023/03/27 08:16:16;;;;;;;2.20;0.70;;;8.10;99.90;;;;;;5013698;28;20062;-84
2023/03/27 08:18:45;;;;;;;2.67;0.50;;;8.40;99.90;;;;;;5012778;28;20117;-84
2023/03/27 08:21:11;;;;;;;3.10;0.60;;;8.90;99.90;;;;;;5005838;28;20030;-84
2023/03/27 08:23:37;;;;;;;;;;;9.00;99.90;;;;;;5011825;28;20080;-83
2023/03/27 08:26:04;;;;;;;1.38;0.40;;;9.40;99.90;;;;;;4996318;28;19921;-83
2023/03/27 08:28:31;;;;;;;1.35;0.43;;;9.50;99.90;;;;;;5010949;28;20048;-82
2023/03/27 08:30:58;;;;;;;4.38;0.80;;;9.60;99.90;;;;;;4995822;28;20050;-83
2023/03/27 08:33:26;;;;;;;5.30;0.77;;;10.20;99.90;;;;;;5011344;28;20046;-83
2023/03/27 08:35:52;;;;;;;4.10;0.63;;;10.50;99.90;;;;;;5011933;28;20049;-83
2023/03/27 08:38:19;;;;;;;2.03;0.60;;;10.80;99.90;;;;;;5011164;28;20405;-82
2023/03/27 08:40:52;;;;;;;2.88;0.70;;;11.20;99.90;;;;;;5011412;28;20044;-83
2023/03/27 08:43:25;;;;;;;2.97;0.60;;;11.00;99.90;;;;;;5011058;28;20042;-82
2023/03/27 08:46:17;;;;;;;4.97;0.52;;;11.10;99.90;;;;;;4995293;28;20090;-82
2023/03/27 08:48:59;;;;;;;3.03;0.70;;;11.00;99.90;;;;;;4998346;28;20045;-82
2023/03/27 08:51:36;;;;;;;2.78;0.60;;;11.00;99.90;;;;;;4994460;28;20049;-82
2023/03/27 08:54:21;;;;;;;2.40;0.60;;;11.10;99.90;;;;;;4993324;28;20112;-82
2023/03/27 08:56:47;;;;;;;3.58;0.60;;;11.30;99.90;;;;;;5009844;28;20125;-82
2023/03/27 08:59:23;;;;;;;3.22;0.60;;;11.20;99.90;;;;;;5011266;28;20042;-81
2023/03/27 09:01:53;;;;;;;4.07;0.93;;;11.10;99.90;;;;;;5009708;28;20085;-82
2023/03/27 09:04:43;;;;;;;2.88;0.50;;;11.30;99.90;;;;;;5010941;28;20513;-82
2023/03/27 09:07:47;;;;;;;2.15;0.65;;;11.40;99.90;;;;;;5009537;28;20041;-81
2023/03/27 09:10:33;;;;;;;4.40;0.68;;;11.30;99.90;;;;;;5001419;28;20100;-81
2023/03/27 09:13:16;;;;;;;3.63;0.50;;;10.50;99.90;;;;;;4996641;28;20096;-82
2023/03/27 09:16:00;;;;;;;3.50;0.50;;;10.20;99.90;;;;;;5009899;28;20358;-82
2023/03/27 09:18:26;;;;;;;3.95;0.68;;;10.10;99.90;;;;;;5005965;28;20046;-81
2023/03/27 09:21:09;;;;;;;3.10;0.60;;;10.30;99.90;;;;;;4994988;28;20026;-82
2023/03/27 09:23:41;;;;;;;3.88;0.60;;;10.70;99.90;;;;;;5008884;28;20497;-82
2023/03/27 09:26:12;;;;;;;3.47;0.43;;;11.10;99.90;;;;;;4994470;28;20092;-82
2023/03/27 09:28:54;;;;;;;5.68;0.60;;;10.40;99.90;;;;;;5010564;28;20393;-82
2023/03/27 09:31:26;;;;;;;3.08;0.50;;;10.00;99.90;;;;;;5009629;28;20058;-82
2023/03/27 09:33:53;;;;;;;4.30;0.60;;;10.20;99.90;;;;;;5006586;28;20042;-81
2023/03/27 09:36:20;;;;;;;1.90;0.50;;;10.90;99.90;;;;;;5010609;28;20045;-81
2023/03/27 09:38:50;;;;;;;2.92;0.50;;;10.90;99.90;;;;;;5010648;28;20049;-81
2023/03/27 09:41:23;;;;;;;4.05;0.50;;;10.70;99.90;;;;;;5010570;28;20030;-81
2023/03/27 09:43:54;;;;;;;3.90;0.40;;;10.80;99.90;;;;;;5011077;28;20030;-81
2023/03/27 09:46:22;;;;;;;3.00;0.43;;;11.50;99.90;;;;;;5008602;28;20503;-81
2023/03/27 09:48:57;;;;;;;3.72;0.32;;;11.70;99.90;;;;;;4994282;28;20145;-81
2023/03/27 09:51:41;;;;;;;2.97;0.43;;;11.30;99.90;;;;;;5005869;28;20041;-81
2023/03/27 09:54:13;;;;;;;2.40;0.40;;;11.10;99.90;;;;;;5010915;28;20394;-82
2023/03/27 09:57:03;;;;;;;3.05;0.35;;;11.60;99.90;;;;;;5010374;28;20041;-83
2023/03/27 09:59:38;;;;;;;3.42;0.60;;;11.70;99.10;;;;;;5009969;28;20125;-82
2023/03/27 10:02:17;;;;;;;3.35;0.40;;;12.10;99.40;;;;;;5007904;28;20111;-82
2023/03/27 10:05:02;;;;;;;2.58;0.30;;;12.40;99.70;;;;;;4991048;28;20125;-82
2023/03/27 10:07:29;;;;;;;4.47;0.60;;;11.90;99.30;;;;;;4986994;28;20036;-81
2023/03/27 10:10:10;;;;;;;3.20;0.40;;;10.90;99.20;;;;;;5010012;28;20038;-82
2023/03/27 10:12:37;;;;;;;1.77;0.40;;;10.00;99.90;;;;;;4989684;28;20038;-81
2023/03/27 10:15:16;;;;;;;2.35;0.57;;;10.20;99.60;;;;;;5010217;28;20093;-81
2023/03/27 10:17:47;;;;;;;1.48;0.30;;;10.80;99.50;;;;;;5010160;28;20046;-82
2023/03/27 10:20:17;;;;;;;2.00;0.50;;;11.40;99.00;;;;;;5009861;28;20065;-81
2023/03/27 10:22:55;;;;;;;3.63;0.50;;;11.10;98.70;;;;;;5009792;28;20064;-82
2023/03/27 10:25:31;;;;;;;3.83;0.57;;;10.60;99.90;;;;;;5008603;28;20046;-82
2023/03/27 10:28:37;;;;;;;3.40;0.40;;;11.00;99.90;;;;;;5010023;28;20038;-81
2023/03/27 10:31:08;;;;;;;5.93;0.50;;;10.80;99.60;;;;;;4996594;28;20058;-82
2023/03/27 10:33:40;;;;;;;4.38;0.40;;;10.80;99.90;;;;;;5013485;28;20050;-82
2023/03/27 10:36:08;;;;;;;1.33;0.43;;;11.20;99.90;;;;;;4997814;28;20041;-82
2023/03/27 10:38:37;;;;;;;1.92;0.28;;;11.40;99.70;;;;;;5013696;28;20052;-82
2023/03/27 10:41:12;;;;;;;3.05;0.32;;;12.00;98.70;;;;;;5012098;28;20034;-82
2023/03/27 10:43:43;;;;;;;2.67;0.35;;;12.10;98.30;;;;;;5013219;28;20041;-82
2023/03/27 10:46:12;;;;;;;4.15;0.47;;;12.40;98.10;;;;;;5014051;28;20156;-82
2023/03/27 10:48:55;;;;;;;2.38;0.57;;;12.70;97.90;;;;;;5013544;28;20112;-81
2023/03/27 10:51:35;;;;;;;2.90;0.35;;;12.90;96.80;;;;;;4997221;28;20046;-82
2023/03/27 10:54:13;;;;;;;2.58;0.30;;;13.30;97.80;;;;;;5013546;28;20085;-82
2023/03/27 10:56:53;;;;;;;2.85;0.28;;;12.80;97.20;;;;;;5010496;28;20401;-81
2023/03/27 10:59:35;;;;;;;3.75;0.43;;;11.90;97.20;;;;;;5007925;28;20042;-81
2023/03/27 11:02:13;;;;;;;3.13;0.40;;;11.60;98.20;;;;;;5010710;28;20112;-81
2023/03/27 11:05:19;;;;;;;4.78;0.70;;;11.70;98.40;;;;;;4996808;28;20038;-82
2023/03/27 11:07:57;;;;;;;2.20;0.35;;;11.80;97.20;;;;;;5009274;28;20052;-81
2023/03/27 11:10:30;;;;;;;4.65;0.60;;;12.70;97.30;;;;;;5013449;28;20084;-81
2023/03/27 11:13:07;;;;;;;1.80;0.32;;;12.50;96.40;;;;;;5011981;28;20038;-82
2023/03/27 11:15:41;;;;;;;5.97;0.60;;;12.40;97.60;;;;;;5012898;28;20059;-81
2023/03/27 11:18:22;;;;;;;2.00;0.40;;;12.20;98.00;;;;;;5012895;28;20060;-81
2023/03/27 11:20:58;;;;;;;3.10;0.52;;;12.20;98.00;;;;;;5010326;28;20067;-80
2023/03/27 11:23:37;;;;;;;2.67;0.43;;;12.40;98.10;;;;;;5012652;28;20038;-81
2023/03/27 11:26:10;;;;;;;6.03;0.80;;;11.90;99.90;;;;;;5001154;28;20036;-81
2023/03/27 11:29:00;;;;;;;6.75;1.02;;;10.70;99.90;;;;;;5009566;28;20041;-81
2023/03/27 11:31:47;;;;;;;3.35;0.90;;;9.60;99.90;;;;;;5004132;28;20133;-81
2023/03/27 11:34:45;;;;;;;5.63;0.70;;;9.00;99.90;;;;;;5008453;28;20506;-81
2023/03/27 11:37:21;;;;;;;3.60;0.52;;;8.60;99.90;;;;;;4990408;28;20516;-80
2023/03/27 11:39:54;;;;;;;3.60;0.50;;;8.50;99.90;;;;;;5011787;28;20048;-81
2023/03/27 11:42:23;;;;;;;4.05;0.80;;;9.20;99.90;;;;;;4996515;28;20042;-81
2023/03/27 11:44:50;;;;;;;2.53;0.52;;;10.20;99.90;;;;;;4995954;28;20136;-80
2023/03/27 11:47:34;;;;;;;3.20;0.43;;;11.30;99.90;;;;;;4995894;28;20072;-81
2023/03/27 11:50:10;;;;;;;4.55;0.50;;;11.80;99.90;;;;;;5012477;28;20118;-81
2023/03/27 11:52:51;;;;;;;2.38;0.45;;;12.20;99.90;;;;;;4988831;28;20080;-81
2023/03/27 11:55:38;;;;;;;2.90;0.52;;;12.80;99.90;;;;;;4991611;28;20072;-80
2023/03/27 11:58:32;;;;;;;2.17;0.50;;;12.70;98.60;;;;;;4995662;28;20046;-81
2023/03/27 12:01:21;;;;;;;5.55;0.80;;;13.00;98.40;;;;;;4991714;28;20034;-81
2023/03/27 12:04:03;;;;;;;3.90;0.50;;;13.30;98.10;;;;;;5011750;28;20038;-81
2023/03/27 12:06:35;;;;;;;2.55;0.40;;;13.10;97.20;;;;;;5011545;28;20048;-81
2023/03/27 12:09:22;;;;;;;3.35;0.50;;;12.60;95.30;;;;;;5011698;28;20042;-81
2023/03/27 12:12:18;;;;;;;5.00;0.63;;;12.30;95.30;;;;;;5011475;28;20046;-80
2023/03/27 12:14:50;;;;;;;3.78;0.70;;;12.70;95.70;;;;;;4982985;28;20131;-81
2023/03/27 12:17:57;;;;;;;4.70;0.80;;;12.60;95.20;;;;;;5006755;28;20516;-80
2023/03/27 12:20:43;;;;;;;2.88;0.70;;;12.40;95.30;;;;;;5010076;28;20037;-81
2023/03/27 12:23:31;;;;;;;5.70;0.70;;;12.60;95.20;;;;;;5010863;28;20402;-80
2023/03/27 12:26:06;;;;;;;;;;;13.00;95.70;;;;;;5005335;28;20638;-80
2023/03/27 12:28:44;;;;;;;5.10;0.50;;;12.60;94.50;;;;;;4994937;28;20258;-80
2023/03/27 12:31:22;;;;;;;3.83;0.65;;;11.90;95.40;;;;;;5011223;28;20499;-80
2023/03/27 12:33:56;;;;;;;4.32;0.52;;;11.60;96.00;;;;;;5011009;28;20045;-80
2023/03/27 12:36:25;;;;;;;7.35;0.75;;;12.00;95.40;;;;;;5010019;28;20084;-80
2023/03/27 12:38:54;;;;;;;6.05;0.73;;;11.40;96.20;;;;;;5010961;28;20125;-80
2023/03/27 12:41:27;;;;;;;5.70;0.80;;;11.30;96.70;;;;;;5009197;28;20045;-80
2023/03/27 12:43:55;;;;;;;3.10;0.52;;;11.20;98.30;;;;;;4994778;28;20052;-80
2023/03/27 12:46:27;;;;;;;4.95;0.80;;;11.20;99.00;;;;;;5010958;28;20042;-80
2023/03/27 12:48:53;;;;;;;4.00;0.80;;;10.60;99.90;;;;;;4994231;28;20034;-80
2023/03/27 12:51:34;;;;;;;5.80;0.90;;;11.00;99.90;;;;;;5010370;28;20374;-80
2023/03/27 12:54:18;;;;;;;2.90;0.70;;;11.30;98.90;;;;;;5007451;28;20110;-80
2023/03/27 12:57:07;;;;;;;1.10;0.30;;;11.90;97.90;;;;;;4993786;28;20104;-80
2023/03/27 12:59:47;;;;;;;3.72;0.55;;;12.30;97.20;;;;;;5004251;28;20069;-80
2023/03/27 13:02:41;;;;;;;4.90;0.65;;;12.30;97.10;;;;;;4992234;28;20046;-80
2023/03/27 13:05:35;;;;;;;3.50;0.55;;;12.40;97.80;;;;;;5007922;28;20034;-80
2023/03/27 13:08:28;;;;;;;5.43;0.70;;;12.70;98.30;;;;;;4975370;28;20115;-80
2023/03/27 13:11:12;;;;;;;5.57;0.50;;;12.10;98.30;;;;;;4992713;28;20037;-80
2023/03/27 13:13:53;;;;;;;2.38;0.50;;;12.30;99.10;;;;;;5007619;28;20029;-79
2023/03/27 13:16:54;;;;;;;3.80;0.57;;;12.20;99.10;;;;;;5010920;28;20053;-79
2023/03/27 13:19:49;;;;;;;3.97;0.70;;;12.40;97.90;;;;;;5009191;28;20126;-80
2023/03/27 13:22:52;;;;;;;4.90;0.77;;;12.00;99.00;;;;;;4997819;28;20041;-80
2023/03/27 13:25:31;;;;;;;3.38;0.63;;;11.70;98.50;;;;;;5007696;28;20494;-80
2023/03/27 13:28:02;;;;;;;5.53;0.68;;;11.20;99.80;;;;;;5009528;28;20099;-80
2023/03/27 13:30:50;;;;;;;4.25;0.50;;;10.30;99.90;;;;;;5008247;28;20081;-79